METAR AND TAF INFORMATION
METAR FOR KMCO
KMCO 270653Z 17005KT 10SM CLR 14/12 A3015 RMK AO2 SLP209 T01390117
KMCO 270553Z 17007KT 10SM CLR 14/12 A3016 RMK AO2 SLP212 T01440117 10200 20144 50003
KMCO 270453Z 16009KT 10SM CLR 16/12 A3017 RMK AO2 SLP215 T01560122 402500094
KMCO 270535Z 2706/2812 VRB04KT P6SM SKC
FM271500 17009KT P6SM SKC
FM272300 13008KT P6SM SKC
FM280400 17005KT P6SM SKC

 AIRPORT MAP

 RUNWAY INFORMATION
Runway 17L Runway length 9000 ft Runway width 150 ft
Runway elevation 90 ft Runway displaced threshold 0 ft Runway heading 180
Runway 35R Runway length 9000 ft Runway width 150 ft
Runway elevation 90 ft Runway displaced threshold 0 ft Runway heading 360
Runway 17R Runway length 10000 ft Runway width 150 ft
Runway elevation 90 ft Runway displaced threshold 0 ft Runway heading 179
Runway 35L Runway length 10000 ft Runway width 150 ft
Runway elevation 87 ft Runway displaced threshold 0 ft Runway heading 359
Runway 18L Runway length 12005 ft Runway width 200 ft
Runway elevation 93 ft Runway displaced threshold 0 ft Runway heading 179
Runway 36R Runway length 12005 ft Runway width 200 ft
Runway elevation 91 ft Runway displaced threshold 0 ft Runway heading 359
Runway 18R Runway length 12004 ft Runway width 200 ft
Runway elevation 93 ft Runway displaced threshold 0 ft Runway heading 179
Runway 36L Runway length 12004 ft Runway width 200 ft
Runway elevation 91 ft Runway displaced threshold 0 ft Runway heading 359

 AIRPORT FREQUENCIES
Type A/D Name APP/DEP Frequency 119.4 MHZ
Type ATIS Name ATIS Frequency 121.25 MHZ
Type CLD Name CLNC DEL Frequency 134.7 MHZ
Type GND Name GND Frequency 121.8 MHZ
Type OPS Name AR OPS Frequency 41.5 MHZ
Type RDO Name ST PETERSB Frequency 122.2 MHZ
Type RDO Name ST PETERSB Frequency 122.1 MHZ
Type TWR Name TWR Frequency 118.45 MHZ
Type UNIC Name UNICOM Frequency 122.95 MHZ

 AIRPORT NEAR NAVIGATION AIDS

-